createdAt,value
2018-12-20T00:01:21.059Z,23.17
2018-12-20T00:03:48.744Z,27.23
2018-12-20T00:06:16.361Z,21.83
2018-12-20T00:08:44.036Z,27.80
2018-12-20T00:11:11.616Z,25.93
2018-12-20T00:13:39.282Z,25.13
2018-12-20T00:16:06.845Z,27.67
2018-12-20T00:18:34.401Z,24.00
2018-12-20T00:21:02.600Z,26.03
2018-12-20T00:23:30.243Z,21.90
2018-12-20T00:25:57.796Z,27.53
2018-12-20T00:28:25.375Z,30.43
2018-12-20T00:30:53.113Z,31.07
2018-12-20T00:33:20.818Z,27.40
2018-12-20T00:35:48.433Z,20.13
2018-12-20T00:38:16.090Z,26.30
2018-12-20T00:40:43.816Z,28.30
2018-12-20T00:43:11.444Z,25.43
2018-12-20T00:45:39.156Z,28.30
2018-12-20T00:48:06.840Z,25.70
2018-12-20T00:50:34.760Z,28.37
2018-12-20T00:53:02.462Z,23.43
2018-12-20T00:55:30.167Z,25.57
2018-12-20T00:57:58.068Z,20.10
2018-12-20T01:00:25.743Z,26.53
2018-12-20T01:02:55.330Z,26.68
2018-12-20T01:05:23.061Z,22.97
2018-12-20T01:07:50.644Z,18.63
2018-12-20T01:10:18.215Z,24.47
2018-12-20T01:12:45.945Z,24.27
2018-12-20T01:15:13.594Z,20.83
2018-12-20T01:17:41.308Z,15.83
2018-12-20T01:20:08.905Z,21.10
2018-12-20T01:22:36.516Z,13.83
2018-12-20T01:25:04.237Z,12.80
2018-12-20T01:27:31.856Z,16.13
2018-12-20T01:29:59.408Z,14.50
2018-12-20T01:32:26.980Z,11.20
2018-12-20T01:34:54.562Z,14.40
2018-12-20T01:37:22.438Z,10.73
2018-12-20T01:39:50.091Z,15.87
2018-12-20T01:42:17.859Z,13.05
2018-12-20T01:44:53.319Z,14.23
2018-12-20T01:47:15.191Z,13.53
2018-12-20T01:49:42.901Z,12.53
2018-12-20T01:52:10.565Z,12.23
2018-12-20T01:54:38.271Z,14.13
2018-12-20T01:57:06.228Z,14.10
2018-12-20T01:59:33.793Z,16.23
2018-12-20T02:02:01.508Z,13.73
2018-12-20T02:04:29.187Z,14.43
2018-12-20T02:06:56.966Z,15.33
2018-12-20T02:09:24.621Z,18.50
2018-12-20T02:11:52.416Z,17.97
2018-12-20T02:14:20.051Z,13.47
2018-12-20T02:16:47.869Z,16.17
2018-12-20T02:19:15.787Z,16.50
2018-12-20T02:21:43.549Z,16.30
2018-12-20T02:24:11.229Z,19.50
2018-12-20T02:26:38.926Z,17.17
2018-12-20T02:29:06.654Z,16.97
2018-12-20T02:31:34.260Z,17.90
2018-12-20T02:34:01.962Z,20.43
2018-12-20T02:36:29.709Z,22.60
2018-12-20T02:38:57.464Z,21.03
2018-12-20T02:41:25.145Z,14.60
2018-12-20T02:43:52.939Z,17.87
2018-12-20T02:46:20.621Z,17.33
2018-12-20T02:48:48.434Z,15.13
2018-12-20T02:51:16.271Z,16.53
2018-12-20T02:53:44.117Z,16.53
2018-12-20T02:56:11.663Z,15.07
2018-12-20T02:58:39.261Z,15.20
2018-12-20T03:01:06.963Z,20.57
2018-12-20T03:03:34.576Z,16.80
2018-12-20T03:06:02.169Z,22.87
2018-12-20T03:08:29.939Z,20.43
2018-12-20T03:10:57.954Z,15.27
2018-12-20T03:13:25.775Z,19.63
2018-12-20T03:15:54.146Z,17.90
2018-12-20T03:18:21.879Z,20.00
2018-12-20T03:20:49.615Z,19.10
2018-12-20T03:23:17.272Z,14.80
2018-12-20T03:25:44.836Z,15.47
2018-12-20T03:28:12.565Z,20.47
2018-12-20T03:30:40.185Z,19.37
2018-12-20T03:33:10.450Z,18.17
2018-12-20T03:35:37.329Z,20.73
2018-12-20T03:38:04.995Z,19.47
2018-12-20T03:40:32.980Z,19.87
2018-12-20T03:43:00.826Z,17.07
2018-12-20T03:45:29.367Z,18.87
2018-12-20T03:47:57.111Z,17.27
2018-12-20T03:50:24.715Z,17.57
2018-12-20T03:52:52.362Z,19.83
2018-12-20T03:55:20.172Z,19.37
2018-12-20T03:57:47.933Z,16.17
2018-12-20T04:00:15.910Z,16.57
2018-12-20T04:02:44.053Z,16.27
2018-12-20T04:05:11.732Z,17.20
2018-12-20T04:07:39.292Z,15.47
2018-12-20T04:10:07.071Z,13.97
2018-12-20T04:12:34.758Z,17.13
2018-12-20T04:15:02.311Z,14.23
2018-12-20T04:17:29.862Z,18.13
2018-12-20T04:19:57.415Z,14.30
2018-12-20T04:22:24.969Z,17.73
2018-12-20T04:24:52.566Z,13.90
2018-12-20T04:27:20.121Z,14.53
2018-12-20T04:29:47.696Z,14.90
2018-12-20T04:32:15.544Z,15.37
2018-12-20T04:34:43.312Z,14.07
2018-12-20T04:37:10.903Z,14.23
2018-12-20T04:39:38.456Z,11.20
2018-12-20T04:42:06.005Z,15.37
2018-12-20T04:44:33.557Z,16.07
2018-12-20T04:47:01.273Z,15.73
2018-12-20T04:49:28.942Z,16.33
2018-12-20T04:51:56.552Z,12.93
2018-12-20T04:54:24.108Z,20.93
2018-12-20T04:56:51.768Z,13.67
2018-12-20T04:59:19.700Z,11.77
2018-12-20T05:01:47.859Z,12.97
2018-12-20T05:04:15.692Z,15.10
2018-12-20T05:06:43.413Z,15.90
2018-12-20T05:09:11.251Z,13.77
2018-12-20T05:11:38.974Z,15.23
2018-12-20T05:14:06.573Z,17.40
2018-12-20T05:16:34.575Z,14.60
2018-12-20T05:19:02.251Z,17.73
2018-12-20T05:21:29.949Z,17.80
2018-12-20T05:23:58.462Z,18.53
2018-12-20T05:26:26.189Z,14.27
2018-12-20T05:28:53.743Z,15.87
2018-12-20T05:31:21.333Z,17.10
2018-12-20T05:33:49.071Z,14.03
2018-12-20T05:36:16.791Z,9.60
2018-12-20T05:38:44.405Z,23.07
2018-12-20T05:41:12.240Z,13.30
2018-12-20T05:43:40.046Z,12.30
2018-12-20T05:46:07.672Z,14.13
2018-12-20T05:48:35.339Z,15.77
2018-12-20T05:51:03.232Z,11.57
2018-12-20T05:53:30.880Z,14.03
2018-12-20T05:55:58.450Z,18.30
2018-12-20T05:58:26.250Z,14.77
2018-12-20T06:00:54.132Z,15.63
2018-12-20T06:03:22.583Z,16.63
2018-12-20T06:05:50.151Z,16.73
2018-12-20T06:08:17.720Z,15.37
2018-12-20T06:10:45.280Z,14.57
2018-12-20T06:13:12.875Z,16.17
2018-12-20T06:15:40.551Z,17.97
2018-12-20T06:18:08.494Z,14.63
2018-12-20T06:20:36.412Z,18.13
2018-12-20T06:23:04.010Z,16.03
2018-12-20T06:25:31.553Z,18.57
2018-12-20T06:27:59.101Z,14.97
2018-12-20T06:30:27.172Z,21.30
2018-12-20T06:32:54.721Z,20.27
2018-12-20T06:35:22.270Z,11.73
2018-12-20T06:37:49.859Z,15.73
2018-12-20T06:40:17.751Z,14.20
2018-12-20T06:42:47.514Z,15.17
2018-12-20T06:45:15.312Z,15.07
2018-12-20T06:47:42.880Z,14.10
2018-12-20T06:50:10.424Z,18.47
2018-12-20T06:52:37.977Z,19.03
2018-12-20T06:55:05.528Z,17.37
2018-12-20T06:57:33.082Z,17.23
2018-12-20T07:00:00.648Z,14.50
2018-12-20T07:02:28.197Z,13.17
2018-12-20T07:04:56.600Z,16.07
2018-12-20T07:07:24.147Z,15.57
2018-12-20T07:09:51.694Z,14.60
2018-12-20T07:12:19.281Z,18.23
2018-12-20T07:14:46.836Z,13.80
2018-12-20T07:17:14.383Z,10.53
2018-12-20T07:19:41.927Z,15.23
2018-12-20T07:22:09.924Z,18.23
2018-12-20T07:24:37.476Z,14.03
2018-12-20T07:27:05.028Z,15.97
2018-12-20T07:29:32.590Z,15.87
2018-12-20T07:32:00.136Z,11.17
2018-12-20T07:34:27.684Z,12.17
2018-12-20T07:36:55.238Z,17.30
2018-12-20T07:39:22.801Z,15.67
2018-12-20T07:41:50.357Z,23.17
2018-12-20T07:44:17.917Z,11.90
2018-12-20T07:46:45.473Z,16.63
2018-12-20T07:49:13.024Z,12.73
2018-12-20T07:51:40.583Z,15.40
2018-12-20T07:54:08.132Z,9.83
2018-12-20T07:56:35.691Z,17.57
2018-12-20T07:59:03.251Z,15.33
2018-12-20T08:01:30.807Z,13.10
2018-12-20T08:03:58.366Z,14.43
2018-12-20T08:06:26.720Z,12.07
2018-12-20T08:08:54.271Z,13.73
2018-12-20T08:11:21.873Z,9.67
2018-12-20T08:13:49.443Z,13.40
2018-12-20T08:16:17.071Z,11.13
2018-12-20T08:18:44.629Z,12.13
2018-12-20T08:21:12.214Z,15.77
2018-12-20T08:23:39.773Z,13.33
2018-12-20T08:26:08.093Z,12.43
2018-12-20T08:28:35.643Z,21.10
2018-12-20T08:31:03.196Z,16.47
2018-12-20T08:33:30.757Z,11.50
2018-12-20T08:35:58.316Z,12.10
2018-12-20T08:38:25.880Z,14.07
2018-12-20T08:40:53.436Z,10.67
2018-12-20T08:43:20.988Z,13.20
2018-12-20T08:45:48.536Z,11.10
2018-12-20T08:48:16.080Z,15.00
2018-12-20T08:50:43.639Z,7.67
2018-12-20T08:53:11.199Z,8.03
2018-12-20T08:55:38.768Z,11.47
2018-12-20T08:58:06.332Z,9.80
2018-12-20T09:00:33.907Z,8.80
2018-12-20T09:03:01.454Z,7.67
2018-12-20T09:05:29.008Z,13.50
2018-12-20T09:07:56.553Z,8.93
2018-12-20T09:10:24.100Z,8.07
2018-12-20T09:12:51.657Z,12.47
2018-12-20T09:15:19.199Z,8.10
2018-12-20T09:17:46.756Z,14.30
2018-12-20T09:20:14.309Z,15.80
2018-12-20T09:22:41.866Z,9.27
2018-12-20T09:25:09.414Z,18.47
2018-12-20T09:27:37.320Z,8.87
2018-12-20T09:30:05.053Z,11.73
2018-12-20T09:32:32.614Z,18.43
2018-12-20T09:35:00.172Z,13.43
2018-12-20T09:37:27.734Z,11.37
2018-12-20T09:39:55.287Z,12.60
2018-12-20T09:42:22.845Z,11.07
2018-12-20T09:44:50.392Z,10.20
2018-12-20T09:47:23.647Z,11.67
2018-12-20T09:49:51.200Z,10.63
2018-12-20T09:52:18.752Z,11.75
2018-12-20T09:54:46.331Z,12.23
2018-12-20T09:57:13.888Z,9.73
2018-12-20T09:59:41.436Z,9.77
2018-12-20T10:02:08.993Z,11.00
2018-12-20T10:04:36.588Z,10.67
2018-12-20T10:07:04.144Z,12.33
2018-12-20T10:09:31.723Z,13.63
2018-12-20T10:11:59.305Z,13.33
2018-12-20T10:14:26.861Z,9.77
2018-12-20T10:16:54.408Z,8.57
2018-12-20T10:19:22.038Z,12.77
2018-12-20T10:21:49.595Z,10.83
2018-12-20T10:24:17.158Z,17.20
2018-12-20T10:26:44.715Z,12.73
2018-12-20T10:29:12.264Z,12.97
2018-12-20T10:31:39.816Z,15.97
2018-12-20T10:34:07.377Z,12.82
2018-12-20T10:36:34.936Z,12.50
2018-12-20T10:39:02.501Z,9.50
2018-12-20T10:41:30.065Z,12.57
2018-12-20T10:43:57.619Z,13.20
2018-12-20T10:46:25.172Z,13.63
2018-12-20T10:48:56.188Z,14.37
2018-12-20T10:51:23.784Z,14.97
2018-12-20T10:53:51.340Z,12.27
2018-12-20T10:56:18.892Z,12.70
2018-12-20T10:58:46.437Z,9.73
2018-12-20T11:01:19.628Z,13.30
2018-12-20T11:03:47.184Z,17.13
2018-12-20T11:06:20.387Z,12.30
2018-12-20T11:08:54.094Z,15.70
2018-12-20T11:11:21.640Z,16.93
2018-12-20T11:13:49.195Z,11.40
2018-12-20T11:16:16.766Z,11.23
2018-12-20T11:18:44.332Z,17.30
2018-12-20T11:21:11.896Z,13.00
2018-12-20T11:23:39.465Z,12.13
2018-12-20T11:26:07.007Z,9.53
2018-12-20T11:28:34.556Z,12.03
2018-12-20T11:31:02.116Z,12.83
2018-12-20T11:33:29.675Z,11.30
2018-12-20T11:35:57.227Z,10.93
2018-12-20T11:38:24.783Z,12.83
2018-12-20T11:40:54.545Z,11.50
2018-12-20T11:43:21.916Z,13.90
2018-12-20T11:45:49.469Z,11.27
2018-12-20T11:48:17.351Z,14.03
2018-12-20T11:50:44.913Z,18.00
2018-12-20T11:53:12.461Z,18.23
2018-12-20T11:55:40.024Z,10.93
2018-12-20T11:58:07.608Z,13.33
2018-12-20T12:00:36.703Z,15.40
2018-12-20T12:03:04.331Z,16.10
2018-12-20T12:05:32.192Z,11.57
2018-12-20T12:07:59.761Z,14.93
2018-12-20T12:10:27.376Z,16.83
2018-12-20T12:12:54.931Z,13.60
2018-12-20T12:15:22.483Z,13.07
2018-12-20T12:17:54.176Z,12.67
2018-12-20T12:20:19.621Z,10.57
2018-12-20T12:22:47.175Z,11.00
2018-12-20T12:25:14.732Z,14.07
2018-12-20T12:27:42.284Z,15.03
2018-12-20T12:30:09.840Z,12.73
2018-12-20T12:32:37.393Z,12.43
2018-12-20T12:35:04.944Z,14.10
2018-12-20T12:37:32.864Z,11.77
2018-12-20T12:40:00.418Z,8.43
2018-12-20T12:42:27.967Z,10.47
2018-12-20T12:44:55.520Z,19.27
2018-12-20T12:50:30.975Z,14.83
2018-12-20T12:52:58.684Z,13.90
2018-12-20T12:55:26.237Z,14.73
2018-12-20T12:57:54.970Z,7.50
2018-12-20T13:00:23.327Z,13.50
2018-12-20T13:02:50.881Z,9.50
2018-12-20T13:05:18.437Z,13.10
2018-12-20T13:07:46.278Z,8.00
2018-12-20T13:10:14.413Z,14.90
2018-12-20T13:12:42.253Z,11.00
2018-12-20T13:15:10.371Z,12.70
2018-12-20T13:17:37.920Z,10.37
2018-12-20T13:20:07.633Z,10.30
2018-12-20T13:22:35.215Z,9.87
2018-12-20T13:25:02.759Z,12.83
2018-12-20T13:27:30.688Z,10.73
2018-12-20T13:29:58.231Z,8.23
2018-12-20T13:32:25.777Z,11.17
2018-12-20T13:34:53.328Z,7.40
2018-12-20T13:37:20.872Z,16.33
2018-12-20T13:39:49.174Z,10.57
2018-12-20T13:42:16.731Z,12.33
2018-12-20T13:44:45.140Z,10.87
2018-12-20T13:47:12.751Z,8.77
2018-12-20T13:49:40.305Z,8.43
2018-12-20T13:52:07.866Z,11.00
2018-12-20T13:54:35.432Z,12.27
2018-12-20T13:57:02.985Z,9.20
2018-12-20T13:59:30.535Z,9.33
2018-12-20T14:01:58.092Z,11.67
2018-12-20T14:04:26.374Z,6.13
2018-12-20T14:06:53.928Z,13.73
2018-12-20T14:09:21.473Z,9.80
2018-12-20T14:11:49.019Z,8.53
2018-12-20T14:14:16.578Z,6.77
2018-12-20T14:16:44.135Z,10.27
2018-12-20T14:19:11.697Z,8.53
2018-12-20T14:21:39.239Z,11.90
2018-12-20T14:24:06.788Z,14.37
2018-12-20T14:26:34.892Z,11.13
2018-12-20T14:29:03.208Z,16.13
2018-12-20T14:31:30.764Z,9.50
2018-12-20T14:33:58.796Z,11.90
2018-12-20T14:36:26.348Z,10.73
2018-12-20T14:38:53.903Z,10.07
2018-12-20T14:41:21.468Z,13.90
2018-12-20T14:43:49.015Z,9.63
2018-12-20T14:46:16.561Z,9.63
2018-12-20T14:48:44.115Z,12.07
2018-12-20T14:51:11.676Z,11.57
2018-12-20T14:53:39.219Z,8.80
2018-12-20T14:56:06.776Z,10.33
2018-12-20T14:58:34.320Z,8.20
2018-12-20T15:01:02.145Z,11.27
2018-12-20T15:03:29.696Z,12.47
2018-12-20T15:05:59.103Z,13.00
2018-12-20T15:08:26.827Z,10.97
2018-12-20T15:10:54.379Z,13.23
2018-12-20T15:13:21.947Z,12.53
2018-12-20T15:15:49.508Z,10.47
2018-12-20T15:18:17.060Z,16.33
2018-12-20T15:20:44.611Z,7.73
2018-12-20T15:23:12.181Z,16.80
2018-12-20T15:25:39.769Z,9.73
2018-12-20T15:28:07.325Z,8.70
2018-12-20T15:30:34.872Z,11.27
2018-12-20T15:33:02.465Z,10.70
2018-12-20T15:35:30.026Z,11.03
2018-12-20T15:37:57.584Z,11.13
2018-12-20T15:40:25.368Z,12.53
2018-12-20T15:42:52.912Z,9.63
2018-12-20T15:45:20.460Z,5.87
2018-12-20T15:47:48.008Z,12.33
2018-12-20T15:50:15.576Z,10.97
2018-12-20T15:52:43.996Z,8.07
2018-12-20T15:55:11.575Z,11.20
2018-12-20T15:57:39.151Z,10.13
2018-12-20T16:00:07.842Z,14.40
2018-12-20T16:02:35.421Z,10.43
2018-12-20T16:05:03.932Z,13.53
2018-12-20T16:07:31.480Z,13.47
2018-12-20T16:09:59.705Z,12.13
2018-12-20T16:12:27.266Z,11.60
2018-12-20T16:14:54.825Z,11.77
2018-12-20T16:17:22.376Z,11.43
2018-12-20T16:19:49.933Z,16.73
2018-12-20T16:22:17.476Z,10.23
2018-12-20T16:24:45.033Z,9.07
2018-12-20T16:27:12.580Z,15.47
2018-12-20T16:29:40.133Z,11.60
2018-12-20T16:32:07.681Z,15.20
2018-12-20T16:34:36.050Z,11.73
2018-12-20T16:37:03.603Z,16.63
2018-12-20T16:39:31.157Z,13.70
2018-12-20T16:41:59.599Z,16.17
2018-12-20T16:44:27.383Z,13.90
2018-12-20T16:46:55.035Z,17.43
2018-12-20T16:49:22.620Z,19.83
2018-12-20T16:51:50.176Z,19.43
2018-12-20T16:54:18.722Z,18.73
2018-12-20T16:56:46.279Z,16.37
2018-12-20T16:59:13.879Z,21.07
2018-12-20T17:01:41.433Z,19.77
2018-12-20T17:04:08.988Z,16.33
2018-12-20T17:06:36.540Z,19.60
2018-12-20T17:09:05.866Z,15.60
2018-12-20T17:11:33.419Z,21.33
2018-12-20T17:14:01.973Z,14.03
2018-12-20T17:16:29.531Z,16.13
2018-12-20T17:18:57.115Z,15.37
2018-12-20T17:21:24.664Z,24.07
2018-12-20T17:23:52.239Z,17.70
2018-12-20T17:26:19.789Z,17.87
2018-12-20T17:28:47.332Z,18.37
2018-12-20T17:31:14.880Z,22.63
2018-12-20T17:33:43.084Z,16.77
2018-12-20T17:36:10.656Z,19.63
2018-12-20T17:38:38.239Z,22.93
2018-12-20T17:41:05.789Z,16.97
2018-12-20T17:43:33.339Z,20.10
2018-12-20T17:46:02.186Z,27.87
2018-12-20T17:48:31.107Z,20.97
2018-12-20T17:50:59.328Z,25.70
2018-12-20T17:53:29.125Z,21.07
2018-12-20T17:56:00.446Z,29.57
2018-12-20T17:58:29.410Z,25.57
2018-12-20T18:00:56.964Z,30.20
2018-12-20T18:03:24.524Z,26.53
2018-12-20T18:05:52.076Z,22.87
2018-12-20T18:08:19.636Z,25.43
2018-12-20T18:10:47.194Z,20.97
2018-12-20T18:13:14.753Z,20.07
2018-12-20T18:15:42.316Z,22.37
2018-12-20T18:18:09.867Z,21.03
2018-12-20T18:20:43.131Z,18.77
2018-12-20T18:23:17.345Z,21.80
2018-12-20T18:25:50.949Z,17.30
2018-12-20T18:28:29.156Z,22.90
2018-12-20T18:31:00.909Z,21.30
2018-12-20T18:33:33.902Z,17.47
2018-12-20T18:36:02.064Z,21.93
2018-12-20T18:38:29.613Z,24.37
2018-12-20T18:40:57.171Z,19.77
2018-12-20T18:43:24.722Z,19.83
2018-12-20T18:45:52.273Z,21.50
2018-12-20T18:48:20.383Z,25.80
2018-12-20T18:50:47.932Z,21.20
2018-12-20T18:53:15.609Z,23.40
2018-12-20T18:55:43.163Z,17.33
2018-12-20T18:58:10.801Z,18.67
2018-12-20T19:00:38.396Z,23.63
2018-12-20T19:03:05.988Z,20.83
2018-12-20T19:05:33.533Z,15.57
2018-12-20T19:08:01.093Z,23.03
2018-12-20T19:10:28.658Z,18.53
2018-12-20T19:12:56.209Z,21.37
2018-12-20T19:15:23.764Z,21.13
2018-12-20T19:17:51.404Z,18.57
2018-12-20T19:20:18.953Z,20.93
2018-12-20T19:22:46.515Z,22.03
2018-12-20T19:25:14.347Z,20.00
2018-12-20T19:27:41.904Z,29.87
2018-12-20T19:30:09.452Z,20.70
2018-12-20T19:32:37.000Z,27.87
2018-12-20T19:35:05.127Z,16.30
2018-12-20T19:37:32.683Z,22.27
2018-12-20T19:40:02.018Z,24.90
2018-12-20T19:42:29.582Z,17.77
2018-12-20T19:44:57.138Z,17.25
2018-12-20T19:47:24.691Z,16.97
2018-12-20T19:49:52.252Z,13.60
2018-12-20T19:52:19.801Z,12.03
2018-12-20T19:54:48.074Z,15.90
2018-12-20T19:57:16.139Z,15.40
2018-12-20T19:59:43.695Z,22.70
2018-12-20T20:02:11.255Z,14.60
2018-12-20T20:04:38.853Z,21.37
2018-12-20T20:07:06.407Z,13.33
2018-12-20T20:09:33.960Z,26.17
2018-12-20T20:12:01.533Z,18.63
2018-12-20T20:14:29.080Z,20.73
2018-12-20T20:16:56.634Z,10.43
2018-12-20T20:19:24.188Z,14.33
2018-12-20T20:21:51.737Z,15.77
2018-12-20T20:24:19.292Z,12.23
2018-12-20T20:26:46.848Z,15.17
2018-12-20T20:29:14.408Z,11.80
2018-12-20T20:31:41.975Z,14.80
2018-12-20T20:34:10.367Z,15.27
2018-12-20T20:36:37.928Z,14.60
2018-12-20T20:39:05.753Z,12.57
2018-12-20T20:41:35.158Z,12.13
2018-12-20T20:44:02.890Z,11.90
2018-12-20T20:46:30.700Z,12.07
2018-12-20T20:48:58.248Z,10.93
2018-12-20T20:51:25.866Z,10.25
2018-12-20T20:53:53.434Z,11.10
2018-12-20T20:56:21.003Z,6.03
2018-12-20T20:58:48.550Z,9.87
2018-12-20T21:01:16.162Z,10.00
2018-12-20T21:03:43.712Z,8.70
2018-12-20T21:06:11.261Z,11.43
2018-12-20T21:08:38.816Z,14.13
2018-12-20T21:11:06.368Z,15.30
2018-12-20T21:13:33.924Z,13.93
2018-12-20T21:16:01.492Z,10.00
2018-12-20T21:18:29.043Z,13.70
2018-12-20T21:20:56.594Z,15.87
2018-12-20T21:23:24.217Z,15.07
2018-12-20T21:25:51.778Z,18.57
2018-12-20T21:28:19.334Z,17.23
2018-12-20T21:30:46.897Z,11.87
2018-12-20T21:33:14.453Z,18.27
2018-12-20T21:35:42.007Z,14.57
2018-12-20T21:38:09.602Z,19.07
2018-12-20T21:40:37.161Z,14.87
2018-12-20T21:43:04.760Z,15.37
2018-12-20T21:45:32.317Z,21.40
2018-12-20T21:47:59.869Z,13.70
2018-12-20T21:50:27.428Z,15.97
2018-12-20T21:52:54.992Z,16.83
2018-12-20T21:55:22.568Z,20.17
2018-12-20T21:57:50.138Z,18.15
2018-12-20T22:00:17.695Z,15.87
2018-12-20T22:02:45.264Z,19.50
2018-12-20T22:05:12.817Z,21.30
2018-12-20T22:07:40.366Z,20.43
2018-12-20T22:10:07.916Z,18.50
2018-12-20T22:12:35.471Z,23.57
2018-12-20T22:15:03.036Z,19.90
2018-12-20T22:17:30.619Z,15.10
2018-12-20T22:19:58.718Z,19.00
2018-12-20T22:22:26.564Z,21.77
2018-12-20T22:24:54.115Z,21.77
2018-12-20T22:27:21.672Z,14.87
2018-12-20T22:29:49.226Z,17.63
2018-12-20T22:32:16.772Z,19.00
2018-12-20T22:34:44.331Z,19.03
2018-12-20T22:37:11.887Z,13.80
2018-12-20T22:39:39.444Z,14.97
2018-12-20T22:42:06.991Z,17.13
2018-12-20T22:44:35.561Z,15.03
2018-12-20T22:47:03.619Z,16.27
2018-12-20T22:49:31.168Z,16.67
2018-12-20T22:51:58.727Z,16.30
2018-12-20T22:54:26.282Z,19.50
2018-12-20T22:56:53.836Z,17.47
2018-12-20T22:59:21.394Z,14.07
2018-12-20T23:01:48.941Z,15.83
2018-12-20T23:04:16.496Z,16.03
2018-12-20T23:06:44.390Z,16.93
2018-12-20T23:09:11.944Z,16.23
2018-12-20T23:11:39.499Z,12.90
2018-12-20T23:14:07.063Z,18.57
2018-12-20T23:16:35.588Z,17.10
2018-12-20T23:19:03.138Z,18.70
2018-12-20T23:21:30.690Z,15.83
2018-12-20T23:23:58.247Z,19.97
2018-12-20T23:26:25.800Z,19.13
2018-12-20T23:28:53.376Z,18.07
2018-12-20T23:31:20.932Z,15.87
2018-12-20T23:33:48.484Z,12.87
2018-12-20T23:36:16.500Z,20.53
2018-12-20T23:38:44.051Z,15.23
2018-12-20T23:41:11.603Z,16.57
2018-12-20T23:43:39.866Z,19.30
2018-12-20T23:46:07.754Z,12.53
2018-12-20T23:48:36.868Z,13.33
2018-12-20T23:51:13.401Z,14.87
2018-12-20T23:53:35.871Z,17.67
2018-12-20T23:56:03.429Z,14.43
2018-12-20T23:58:30.991Z,16.67
